createdAt,value
2023-01-18T00:01:28.550Z,-0.90
2023-01-18T00:04:17.337Z,-0.90
2023-01-18T00:07:05.945Z,-0.90
2023-01-18T00:09:56.805Z,-0.90
2023-01-18T00:12:45.676Z,-0.90
2023-01-18T00:15:34.795Z,-0.90
2023-01-18T00:18:23.400Z,-1.00
2023-01-18T00:21:13.408Z,-1.00
2023-01-18T00:24:01.974Z,-1.00
2023-01-18T00:26:51.925Z,-1.00
2023-01-18T00:29:40.467Z,-1.00
2023-01-18T00:32:29.012Z,-1.00
2023-01-18T00:35:22.201Z,-1.00
2023-01-18T00:38:12.943Z,-1.10
2023-01-18T00:41:01.564Z,-1.10
2023-01-18T00:43:50.715Z,-1.10
2023-01-18T00:46:39.363Z,-1.10
2023-01-18T00:49:27.956Z,-1.20
2023-01-18T00:52:16.534Z,-1.20
2023-01-18T00:55:06.852Z,-1.20
2023-01-18T00:57:55.477Z,-1.30
2023-01-18T01:00:45.581Z,-1.20
2023-01-18T01:03:55.464Z,-1.20
2023-01-18T01:06:46.150Z,-1.30
2023-01-18T01:09:35.101Z,-1.30
2023-01-18T01:12:41.212Z,-1.40
2023-01-18T01:15:47.109Z,-1.40
2023-01-18T01:18:54.656Z,-1.40
2023-01-18T01:22:00.710Z,-1.50
2023-01-18T01:25:06.606Z,-1.50
2023-01-18T01:27:55.409Z,-1.50
2023-01-18T01:30:44.674Z,-1.50
2023-01-18T01:33:35.174Z,-1.60
2023-01-18T01:36:27.661Z,-1.60
2023-01-18T01:39:16.413Z,-1.60
2023-01-18T01:42:05.336Z,-1.60
2023-01-18T01:44:53.943Z,-1.60
2023-01-18T01:47:44.546Z,-1.60
2023-01-18T01:50:37.052Z,-1.60
2023-01-18T01:53:27.664Z,-1.60
2023-01-18T01:56:17.054Z,-1.60
2023-01-18T01:59:07.385Z,-1.60
2023-01-18T02:01:56.088Z,-1.60
2023-01-18T02:04:46.580Z,-1.60
2023-01-18T02:07:35.728Z,-1.60
2023-01-18T02:10:25.707Z,-1.60
2023-01-18T02:13:14.338Z,-1.60
2023-01-18T02:16:14.101Z,-1.60
2023-01-18T02:19:18.547Z,-1.60
2023-01-18T02:22:15.547Z,-1.60
2023-01-18T02:25:41.729Z,-1.60
2023-01-18T02:28:35.769Z,-1.60
2023-01-18T02:31:30.078Z,-1.60
2023-01-18T02:34:27.018Z,-1.60
2023-01-18T02:37:22.131Z,-1.60
2023-01-18T02:40:20.492Z,-1.60
2023-01-18T02:43:28.681Z,-1.60
2023-01-18T02:46:34.101Z,-1.60
2023-01-18T02:49:27.312Z,-1.60
2023-01-18T02:52:40.212Z,-1.60
2023-01-18T02:55:38.180Z,-1.60
2023-01-18T02:58:32.877Z,-1.60
2023-01-18T03:01:29.779Z,-1.60
2023-01-18T03:04:23.345Z,-1.60
2023-01-18T03:07:17.769Z,-1.60
2023-01-18T03:10:11.076Z,-1.60
2023-01-18T03:13:03.851Z,-1.60
2023-01-18T03:15:57.110Z,-1.60
2023-01-18T03:19:03.159Z,-1.70
2023-01-18T03:21:53.859Z,-1.60
2023-01-18T03:24:42.755Z,-1.60
2023-01-18T03:27:48.660Z,-1.60
2023-01-18T03:30:56.180Z,-1.70
2023-01-18T03:33:49.942Z,-1.70
2023-01-18T03:36:42.107Z,-1.70
2023-01-18T03:39:35.376Z,-1.70
2023-01-18T03:42:28.051Z,-1.70
2023-01-18T03:45:23.261Z,-1.70
2023-01-18T03:48:12.988Z,-1.70
2023-01-18T03:51:13.449Z,-1.70
2023-01-18T03:54:09.432Z,-1.70
2023-01-18T03:57:02.871Z,-1.70
2023-01-18T03:59:52.188Z,-1.70
2023-01-18T04:02:40.996Z,-1.70
2023-01-18T04:05:29.702Z,-1.80
2023-01-18T04:08:22.036Z,-1.80
2023-01-18T04:11:10.626Z,-1.80
2023-01-18T04:13:59.462Z,-1.80
2023-01-18T04:16:48.161Z,-1.90
2023-01-18T04:19:36.827Z,-1.90
2023-01-18T04:22:25.458Z,-1.80
2023-01-18T04:25:15.568Z,-1.80
2023-01-18T04:28:04.209Z,-1.90
2023-01-18T04:30:53.355Z,-1.90
2023-01-18T04:33:41.902Z,-1.90
2023-01-18T04:36:30.561Z,-1.90
2023-01-18T04:39:19.628Z,-1.80
2023-01-18T04:42:09.617Z,-1.80
2023-01-18T04:44:58.224Z,-1.90
2023-01-18T04:47:46.846Z,-1.90
2023-01-18T04:50:35.486Z,-1.90
2023-01-18T04:53:24.245Z,-1.90
2023-01-18T04:56:13.278Z,-1.90
2023-01-18T04:59:03.304Z,-2.00
2023-01-18T05:01:51.923Z,-2.00
2023-01-18T05:04:40.469Z,-2.00
2023-01-18T05:07:30.784Z,-2.00
2023-01-18T05:10:19.512Z,-2.00
2023-01-18T05:13:08.182Z,-2.00
2023-01-18T05:15:58.398Z,-2.00
2023-01-18T05:18:47.269Z,-2.00
2023-01-18T05:21:37.072Z,-2.00
2023-01-18T05:24:28.877Z,-2.00
2023-01-18T05:27:18.451Z,-2.00
2023-01-18T05:30:08.137Z,-2.00
2023-01-18T05:32:58.443Z,-2.00
2023-01-18T05:35:50.942Z,-2.10
2023-01-18T05:38:39.539Z,-2.10
2023-01-18T05:41:28.128Z,-2.10
2023-01-18T05:44:16.719Z,-2.10
2023-01-18T05:47:05.380Z,-2.10
2023-01-18T05:49:57.906Z,-2.10
2023-01-18T05:52:46.537Z,-2.10
2023-01-18T05:55:35.111Z,-2.20
2023-01-18T05:58:24.185Z,-2.20
2023-01-18T06:01:13.288Z,-2.20
2023-01-18T06:04:01.928Z,-2.20
2023-01-18T06:06:51.971Z,-2.20
2023-01-18T06:09:42.738Z,-2.20
2023-01-18T06:12:31.801Z,-2.20
2023-01-18T06:15:20.493Z,-2.20
2023-01-18T06:18:09.275Z,-2.20
2023-01-18T06:21:01.299Z,-2.20
2023-01-18T06:23:51.571Z,-2.20
2023-01-18T06:26:40.283Z,-2.20
2023-01-18T06:29:28.890Z,-2.20
2023-01-18T06:32:17.606Z,-2.30
2023-01-18T06:35:07.055Z,-2.30
2023-01-18T06:37:56.530Z,-2.30
2023-01-18T06:40:46.518Z,-2.30
2023-01-18T06:43:35.216Z,-2.30
2023-01-18T06:46:23.876Z,-2.30
2023-01-18T06:49:12.734Z,-2.30
2023-01-18T06:52:01.323Z,-2.30
2023-01-18T06:54:49.933Z,-2.40
2023-01-18T06:57:40.263Z,-2.40
2023-01-18T07:00:29.031Z,-2.40
2023-01-18T07:03:17.682Z,-2.50
2023-01-18T07:06:07.607Z,-2.50
2023-01-18T07:08:56.198Z,-2.50
2023-01-18T07:11:45.855Z,-2.60
2023-01-18T07:14:35.858Z,-2.60
2023-01-18T07:17:24.486Z,-2.60
2023-01-18T07:20:15.856Z,-2.60
2023-01-18T07:23:05.082Z,-2.70
2023-01-18T07:26:00.593Z,-2.70
2023-01-18T07:28:49.528Z,-2.70
2023-01-18T07:31:40.700Z,-2.70
2023-01-18T07:34:29.372Z,-2.70
2023-01-18T07:37:18.060Z,-2.70
2023-01-18T07:40:08.558Z,-2.70
2023-01-18T07:42:59.061Z,-2.70
2023-01-18T07:45:55.299Z,-2.70
2023-01-18T07:48:45.816Z,-2.60
2023-01-18T07:51:35.131Z,-2.60
2023-01-18T07:54:23.732Z,-2.60
2023-01-18T07:57:12.324Z,-2.60
2023-01-18T08:00:01.176Z,-2.60
2023-01-18T08:02:51.866Z,-2.60
2023-01-18T08:05:43.094Z,-2.50
2023-01-18T08:08:32.252Z,-2.50
2023-01-18T08:11:20.967Z,-2.40
2023-01-18T08:14:09.535Z,-2.40
2023-01-18T08:16:58.145Z,-2.40
2023-01-18T08:19:46.746Z,-2.40
2023-01-18T08:22:37.046Z,-2.30
2023-01-18T08:25:29.663Z,-2.30
2023-01-18T08:28:18.455Z,-2.20
2023-01-18T08:31:10.795Z,-2.20
2023-01-18T08:33:59.452Z,-2.20
2023-01-18T08:36:48.206Z,-2.10
2023-01-18T08:39:38.316Z,-2.10
2023-01-18T08:42:26.993Z,-2.00
2023-01-18T08:45:16.291Z,-1.80
2023-01-18T08:48:07.595Z,-1.70
2023-01-18T08:50:56.215Z,-1.60
2023-01-18T08:53:44.788Z,-1.50
2023-01-18T08:56:35.016Z,-1.40
2023-01-18T08:59:23.826Z,-1.30
2023-01-18T09:02:12.677Z,-1.20
2023-01-18T09:05:01.279Z,-1.20
2023-01-18T09:07:50.996Z,-1.20
2023-01-18T09:10:39.675Z,-1.10
2023-01-18T09:13:29.665Z,-0.90
2023-01-18T09:16:18.340Z,-0.70
2023-01-18T09:19:07.292Z,-0.40
2023-01-18T09:21:55.944Z,-0.10
2023-01-18T09:24:44.544Z,0.00
2023-01-18T09:27:33.677Z,0.10
2023-01-18T09:30:23.753Z,0.10
2023-01-18T09:33:12.385Z,0.00
2023-01-18T09:36:04.396Z,0.00
2023-01-18T09:38:53.100Z,0.00
2023-01-18T09:41:44.641Z,0.00
2023-01-18T09:44:35.655Z,0.00
2023-01-18T09:47:28.825Z,0.00
2023-01-18T09:50:19.826Z,0.10
2023-01-18T09:53:33.117Z,0.10
2023-01-18T09:56:25.639Z,0.00
2023-01-18T09:59:20.973Z,0.10
2023-01-18T10:02:19.902Z,0.10
2023-01-18T10:05:14.986Z,0.00
2023-01-18T10:08:08.126Z,0.00
2023-01-18T10:11:04.521Z,0.10
2023-01-18T10:14:05.366Z,0.30
2023-01-18T10:16:57.769Z,0.20
2023-01-18T10:19:46.796Z,0.00
2023-01-18T10:22:43.480Z,0.00
2023-01-18T10:25:34.433Z,0.10
2023-01-18T10:28:33.484Z,0.00
2023-01-18T10:31:39.235Z,0.00
2023-01-18T10:34:33.319Z,0.10
2023-01-18T10:37:31.713Z,0.20
2023-01-18T10:40:23.171Z,0.20
2023-01-18T10:43:15.813Z,0.20
2023-01-18T10:46:05.237Z,0.20
2023-01-18T10:48:57.265Z,0.10
2023-01-18T10:51:47.341Z,0.10
2023-01-18T10:54:35.866Z,0.10
2023-01-18T10:57:31.122Z,0.20
2023-01-18T11:00:22.596Z,0.20
2023-01-18T11:03:16.017Z,0.20
2023-01-18T11:06:08.357Z,0.20
2023-01-18T11:08:57.041Z,0.30
2023-01-18T11:12:03.000Z,0.30
2023-01-18T11:14:53.049Z,0.30
2023-01-18T11:17:42.184Z,0.40
2023-01-18T11:20:44.699Z,0.40
2023-01-18T11:23:35.860Z,0.50
2023-01-18T11:26:25.350Z,0.50
2023-01-18T11:29:16.195Z,0.50
2023-01-18T11:32:09.590Z,0.50
2023-01-18T11:35:01.014Z,0.50
2023-01-18T11:37:50.039Z,0.50
2023-01-18T11:40:38.946Z,0.50
2023-01-18T11:43:28.182Z,0.60
2023-01-18T11:46:43.699Z,0.60
2023-01-18T11:49:42.346Z,0.70
2023-01-18T11:52:42.473Z,0.80
2023-01-18T11:55:34.880Z,0.80
2023-01-18T11:58:28.449Z,0.80
2023-01-18T12:01:48.832Z,0.80
2023-01-18T12:04:52.919Z,0.90
2023-01-18T12:07:49.270Z,1.00
2023-01-18T12:10:48.447Z,1.00
2023-01-18T12:13:42.677Z,1.20
2023-01-18T12:16:54.217Z,1.10
2023-01-18T12:20:19.274Z,1.00
2023-01-18T12:23:46.812Z,1.00
2023-01-18T12:26:45.318Z,1.00
2023-01-18T12:30:03.686Z,1.10
2023-01-18T12:33:17.178Z,1.10
2023-01-18T12:36:29.084Z,1.10
2023-01-18T12:39:34.966Z,1.10
2023-01-18T12:42:37.833Z,1.10
2023-01-18T12:45:37.936Z,1.10
2023-01-18T12:48:31.593Z,1.00
2023-01-18T12:51:26.843Z,0.90
2023-01-18T12:54:27.730Z,0.70
2023-01-18T12:57:17.400Z,0.70
2023-01-18T13:00:15.580Z,0.60
2023-01-18T13:03:11.438Z,0.60
2023-01-18T13:06:01.547Z,0.60
2023-01-18T13:08:55.085Z,0.60
2023-01-18T13:11:46.078Z,0.60
2023-01-18T13:14:40.805Z,0.70
2023-01-18T13:17:34.374Z,0.90
2023-01-18T13:20:31.160Z,0.90
2023-01-18T13:23:30.850Z,0.90
2023-01-18T13:26:26.005Z,1.00
2023-01-18T13:29:24.216Z,1.10
2023-01-18T13:32:29.462Z,1.00
2023-01-18T13:35:22.578Z,1.00
2023-01-18T13:38:14.452Z,1.00
2023-01-18T13:41:07.166Z,0.90
2023-01-18T13:44:06.947Z,1.00
2023-01-18T13:47:00.492Z,0.90
2023-01-18T13:49:49.574Z,0.80
2023-01-18T13:52:42.342Z,0.70
2023-01-18T13:55:33.936Z,0.80
2023-01-18T13:58:27.264Z,0.80
2023-01-18T14:01:23.274Z,0.80
2023-01-18T14:04:29.200Z,0.80
2023-01-18T14:07:22.931Z,0.90
2023-01-18T14:10:26.979Z,0.90
2023-01-18T14:13:18.533Z,0.90
2023-01-18T14:16:07.442Z,0.80
2023-01-18T14:19:01.822Z,0.80
2023-01-18T14:22:10.557Z,0.80
2023-01-18T14:25:18.338Z,0.70
2023-01-18T14:28:14.603Z,0.70
2023-01-18T14:31:05.234Z,0.70
2023-01-18T14:33:53.882Z,0.70
2023-01-18T14:36:42.741Z,0.70
2023-01-18T14:39:33.388Z,0.60
2023-01-18T14:42:23.053Z,0.60
2023-01-18T14:45:27.374Z,0.60
2023-01-18T14:48:20.470Z,0.50
2023-01-18T14:51:09.187Z,0.60
2023-01-18T14:54:00.702Z,0.60
2023-01-18T14:56:50.885Z,0.60
2023-01-18T14:59:50.677Z,0.70
2023-01-18T15:02:40.568Z,0.70
2023-01-18T15:05:31.458Z,0.70
2023-01-18T15:08:21.414Z,0.70
2023-01-18T15:11:10.539Z,0.80
2023-01-18T15:14:00.715Z,0.80
2023-01-18T15:16:52.389Z,0.80
2023-01-18T15:19:45.690Z,0.80
2023-01-18T15:22:39.132Z,0.60
2023-01-18T15:25:31.840Z,0.50
2023-01-18T15:28:24.021Z,0.40
2023-01-18T15:31:17.273Z,0.30
2023-01-18T15:34:06.012Z,0.10
2023-01-18T15:36:56.174Z,0.10
2023-01-18T15:39:56.747Z,0.00
2023-01-18T15:42:48.504Z,-0.10
2023-01-18T15:45:39.828Z,-0.20
2023-01-18T15:48:35.529Z,-0.30
2023-01-18T15:51:44.552Z,-0.30
2023-01-18T15:54:33.191Z,-0.50
2023-01-18T15:57:23.749Z,-0.60
2023-01-18T16:00:27.916Z,-0.70
2023-01-18T16:03:21.712Z,-0.70
2023-01-18T16:06:15.185Z,-0.80
2023-01-18T16:09:11.906Z,-0.90
2023-01-18T16:12:01.151Z,-1.00
2023-01-18T16:14:54.172Z,-1.00
2023-01-18T16:17:46.008Z,-1.10
2023-01-18T16:20:36.088Z,-1.20
2023-01-18T16:23:26.878Z,-1.20
2023-01-18T16:26:15.823Z,-1.30
2023-01-18T16:29:09.058Z,-1.30
2023-01-18T16:32:20.241Z,-1.40
2023-01-18T16:35:15.148Z,-1.40
2023-01-18T16:38:04.164Z,-1.50
2023-01-18T16:40:55.373Z,-1.60
2023-01-18T16:43:48.247Z,-1.60
2023-01-18T16:46:36.901Z,-1.60
2023-01-18T16:49:25.557Z,-1.70
2023-01-18T16:52:14.491Z,-1.70
2023-01-18T16:55:03.093Z,-1.70
2023-01-18T16:57:53.064Z,-1.80
2023-01-18T17:00:51.534Z,-1.80
2023-01-18T17:03:40.478Z,-1.80
2023-01-18T17:06:29.407Z,-1.70
2023-01-18T17:09:23.437Z,-1.70
2023-01-18T17:12:12.433Z,-1.60
2023-01-18T17:15:02.496Z,-1.60
2023-01-18T17:17:51.107Z,-1.60
2023-01-18T17:20:39.857Z,-1.60
2023-01-18T17:23:28.508Z,-1.80
2023-01-18T17:26:17.250Z,-1.80
2023-01-18T17:29:07.157Z,-1.90
2023-01-18T17:31:57.201Z,-2.00
2023-01-18T17:34:45.790Z,-2.00
2023-01-18T17:37:35.613Z,-2.10
2023-01-18T17:40:38.218Z,-2.10
2023-01-18T17:43:33.761Z,-2.20
2023-01-18T17:46:23.187Z,-2.20
2023-01-18T17:49:13.229Z,-2.20
2023-01-18T17:52:01.793Z,-2.20
2023-01-18T17:54:50.420Z,-2.30
2023-01-18T17:57:39.038Z,-2.30
2023-01-18T18:00:27.807Z,-2.40
2023-01-18T18:03:16.592Z,-2.40
2023-01-18T18:06:07.318Z,-2.30
2023-01-18T18:08:55.918Z,-2.40
2023-01-18T18:11:44.500Z,-2.40
2023-01-18T18:14:34.425Z,-2.40
2023-01-18T18:17:24.190Z,-2.50
2023-01-18T18:20:13.216Z,-2.50
2023-01-18T18:23:03.345Z,-2.50
2023-01-18T18:25:52.314Z,-2.60
2023-01-18T18:28:40.883Z,-2.70
2023-01-18T18:31:29.658Z,-2.70
2023-01-18T18:34:18.299Z,-2.70
2023-01-18T18:37:07.298Z,-2.80
2023-01-18T18:39:57.269Z,-2.80
2023-01-18T18:43:00.382Z,-2.80
2023-01-18T18:45:50.137Z,-2.80
2023-01-18T18:48:38.702Z,-2.80
2023-01-18T18:51:27.457Z,-2.80
2023-01-18T18:54:16.109Z,-2.70
2023-01-18T18:57:06.176Z,-2.80
2023-01-18T18:59:54.717Z,-2.70
2023-01-18T19:02:43.455Z,-2.80
2023-01-18T19:05:32.970Z,-2.80
2023-01-18T19:08:21.741Z,-2.90
2023-01-18T19:11:10.462Z,-2.90
2023-01-18T19:14:01.176Z,-2.90
2023-01-18T19:16:49.782Z,-2.80
2023-01-18T19:19:38.413Z,-2.80
2023-01-18T19:22:27.268Z,-2.80
2023-01-18T19:25:16.606Z,-2.80
2023-01-18T19:28:05.609Z,-2.80
2023-01-18T19:31:02.422Z,-2.80
2023-01-18T19:33:53.365Z,-2.80
2023-01-18T19:36:41.974Z,-2.70
2023-01-18T19:39:30.542Z,-2.80
2023-01-18T19:42:19.463Z,-2.80
2023-01-18T19:45:11.474Z,-2.80
2023-01-18T19:48:04.054Z,-2.80
2023-01-18T19:50:52.899Z,-2.80
2023-01-18T19:53:44.536Z,-2.70
2023-01-18T19:56:33.123Z,-2.70
2023-01-18T19:59:21.983Z,-2.70
2023-01-18T20:02:13.858Z,-2.80
2023-01-18T20:05:04.335Z,-2.90
2023-01-18T20:07:53.227Z,-2.90
2023-01-18T20:10:41.751Z,-3.00
2023-01-18T20:13:30.323Z,-2.90
2023-01-18T20:16:20.465Z,-2.90
2023-01-18T20:19:12.856Z,-2.80
2023-01-18T20:22:02.841Z,-2.80
2023-01-18T20:24:51.437Z,-2.80
2023-01-18T20:27:40.118Z,-2.60
2023-01-18T20:30:28.716Z,-2.70
2023-01-18T20:33:17.454Z,-2.70
2023-01-18T20:36:06.503Z,-2.70
2023-01-18T20:38:56.619Z,-2.80
2023-01-18T20:41:45.528Z,-2.90
2023-01-18T20:44:34.310Z,-3.00
2023-01-18T20:47:23.049Z,-3.00
2023-01-18T20:50:12.324Z,-3.00
2023-01-18T20:53:01.372Z,-3.00
2023-01-18T20:55:52.048Z,-2.80
2023-01-18T20:58:40.676Z,-2.50
2023-01-18T21:01:32.623Z,-2.30
2023-01-18T21:04:21.801Z,-2.30
2023-01-18T21:07:10.408Z,-2.20
2023-01-18T21:09:58.996Z,-2.20
2023-01-18T21:12:49.235Z,-2.20
2023-01-18T21:15:38.360Z,-2.20
2023-01-18T21:18:27.338Z,-2.20
2023-01-18T21:21:36.730Z,-2.10
2023-01-18T21:24:25.331Z,-2.00
2023-01-18T21:27:14.000Z,-2.00
2023-01-18T21:30:04.079Z,-2.10
2023-01-18T21:32:52.613Z,-2.10
2023-01-18T21:35:41.211Z,-2.10
2023-01-18T21:38:31.073Z,-2.10
2023-01-18T21:41:37.192Z,-2.20
2023-01-18T21:44:43.393Z,-2.20
2023-01-18T21:47:33.374Z,-2.20
2023-01-18T21:50:39.326Z,-2.30
2023-01-18T21:53:45.417Z,-2.40
2023-01-18T21:56:34.084Z,-2.40
2023-01-18T21:59:22.730Z,-2.50
2023-01-18T22:02:11.504Z,-2.50
2023-01-18T22:05:03.411Z,-2.50
2023-01-18T22:07:51.955Z,-2.50
2023-01-18T22:10:40.603Z,-2.50
2023-01-18T22:13:29.203Z,-2.50
2023-01-18T22:16:17.892Z,-2.40
2023-01-18T22:19:06.551Z,-2.30
2023-01-18T22:21:56.556Z,-2.20
2023-01-18T22:24:45.156Z,-2.10
2023-01-18T22:27:34.660Z,-1.90
2023-01-18T22:30:23.299Z,-2.00
2023-01-18T22:33:12.040Z,-2.00
2023-01-18T22:36:01.480Z,-2.00
2023-01-18T22:38:53.971Z,-2.20
2023-01-18T22:41:42.892Z,-2.10
2023-01-18T22:44:32.857Z,-2.20
2023-01-18T22:47:21.700Z,-2.30
2023-01-18T22:50:11.637Z,-2.50
2023-01-18T22:53:00.843Z,-2.60
2023-01-18T22:55:51.077Z,-2.70
2023-01-18T22:58:39.735Z,-2.70
2023-01-18T23:01:30.870Z,-2.80
2023-01-18T23:04:20.561Z,-2.80
2023-01-18T23:07:09.190Z,-2.80
2023-01-18T23:09:57.777Z,-2.80
2023-01-18T23:12:47.842Z,-2.80
2023-01-18T23:15:53.675Z,-2.90
2023-01-18T23:18:42.343Z,-2.90
2023-01-18T23:21:31.011Z,-2.80
2023-01-18T23:24:20.219Z,-2.70
2023-01-18T23:27:10.160Z,-2.70
2023-01-18T23:30:00.310Z,-2.70
2023-01-18T23:32:48.973Z,-2.60
2023-01-18T23:35:37.552Z,-2.60
2023-01-18T23:38:26.160Z,-2.60
2023-01-18T23:41:32.092Z,-2.60
2023-01-18T23:44:38.039Z,-2.60
2023-01-18T23:47:45.382Z,-2.70
2023-01-18T23:50:51.122Z,-2.80
2023-01-18T23:53:56.906Z,-2.90
2023-01-18T23:56:46.693Z,-3.00
2023-01-18T23:59:37.870Z,-3.00
